Time;durP1;ratioP1;P1;durP2;ratioP2;P2;SDS_P1;SDS_P2;PMS_P1;PMS_P2;Temp;Humidity;BMP_temperature;BMP_pressure;BME280_temperature;BME280_humidity;BME280_pressure;Samples;Min_cycle;Max_cycle;Signal;HPM_P1;HPM_P2
2022/06/30 00:00:52;;;;;;;8.25;2.67;;;13.20;76.90;;;;;;5032457;28;20079;-60
2022/06/30 00:03:20;;;;;;;4.80;2.50;;;13.30;76.80;;;;;;5032378;28;20046;-60
2022/06/30 00:05:47;;;;;;;5.88;2.72;;;13.30;76.30;;;;;;5032393;28;20112;-60
2022/06/30 00:08:14;;;;;;;5.55;2.75;;;13.30;76.40;;;;;;5032193;28;20041;-60
2022/06/30 00:10:41;;;;;;;5.30;3.17;;;13.30;76.10;;;;;;5015061;28;20026;-60
2022/06/30 00:13:08;;;;;;;5.53;2.70;;;13.30;76.10;;;;;;5032323;28;20029;-60
2022/06/30 00:15:37;;;;;;;4.97;2.70;;;13.30;76.10;;;;;;5014706;28;20037;-60
2022/06/30 00:18:04;;;;;;;5.80;2.88;;;13.30;76.20;;;;;;5032005;28;20576;-60
2022/06/30 00:20:31;;;;;;;6.25;2.63;;;13.40;76.00;;;;;;5032153;28;20053;-60
2022/06/30 00:22:58;;;;;;;8.07;2.78;;;13.40;76.00;;;;;;5031816;28;20063;-60
2022/06/30 00:25:26;;;;;;;4.55;2.80;;;13.40;75.70;;;;;;5032092;28;20029;-60
2022/06/30 00:27:53;;;;;;;5.85;2.65;;;13.40;75.50;;;;;;5031959;28;20056;-60
2022/06/30 00:30:20;;;;;;;5.32;2.40;;;13.40;75.70;;;;;;5031926;28;20045;-60
2022/06/30 00:32:47;;;;;;;6.30;2.78;;;13.50;75.00;;;;;;5031997;28;20036;-60
2022/06/30 00:35:14;;;;;;;4.25;2.10;;;13.50;74.80;;;;;;5031931;28;20541;-60
2022/06/30 00:37:42;;;;;;;6.45;2.28;;;13.60;74.00;;;;;;5031788;28;20034;-60
2022/06/30 00:40:09;;;;;;;5.28;2.42;;;13.60;73.40;;;;;;5031447;28;20029;-61
2022/06/30 00:42:36;;;;;;;3.53;1.73;;;13.60;73.40;;;;;;5031522;28;20506;-60
2022/06/30 00:45:04;;;;;;;3.78;1.92;;;13.70;72.70;;;;;;5031535;28;20029;-60
2022/06/30 00:47:31;;;;;;;4.28;2.05;;;13.70;72.20;;;;;;5031658;28;20061;-59
2022/06/30 00:49:58;;;;;;;5.28;1.73;;;13.70;71.50;;;;;;5031443;28;20071;-60
2022/06/30 00:52:26;;;;;;;2.95;1.52;;;13.80;70.50;;;;;;4997846;28;20087;-60
2022/06/30 00:54:53;;;;;;;5.13;1.70;;;13.80;69.30;;;;;;4998099;28;20037;-59
2022/06/30 00:57:20;;;;;;;1.90;1.60;;;13.80;69.30;;;;;;5014258;28;20045;-60
2022/06/30 00:59:48;;;;;;;6.90;1.88;;;13.80;69.30;;;;;;5014227;28;20029;-60
2022/06/30 01:02:16;;;;;;;6.38;2.17;;;13.80;69.70;;;;;;5013991;28;20101;-60
2022/06/30 01:04:43;;;;;;;6.20;2.00;;;13.80;69.60;;;;;;5013931;28;20050;-60
2022/06/30 01:07:11;;;;;;;5.63;1.73;;;13.90;69.60;;;;;;5013585;28;20048;-60
2022/06/30 01:15:08;;;;;;;3.63;1.63;;;14.00;67.70;;;;;;5031510;28;20100;-60
2022/06/30 01:17:35;;;;;;;4.90;1.70;;;14.10;67.50;;;;;;5013736;28;20116;-60
2022/06/30 01:20:03;;;;;;;3.75;1.63;;;14.10;67.30;;;;;;5031371;28;20430;-60
2022/06/30 01:22:30;;;;;;;3.55;1.75;;;14.10;67.30;;;;;;5031453;28;20042;-61
2022/06/30 01:24:57;;;;;;;4.40;1.60;;;14.20;67.70;;;;;;5031254;28;20088;-60
2022/06/30 01:27:24;;;;;;;4.78;1.83;;;14.20;67.60;;;;;;5013791;28;20033;-61
2022/06/30 01:29:52;;;;;;;5.85;1.85;;;14.20;67.50;;;;;;5034959;28;20473;-63
2022/06/30 01:32:19;;;;;;;2.78;1.70;;;14.30;67.90;;;;;;5035573;28;20037;-60
2022/06/30 01:34:47;;;;;;;4.32;1.63;;;14.30;67.90;;;;;;5035327;28;20029;-60
2022/06/30 01:37:14;;;;;;;6.70;1.92;;;14.30;67.50;;;;;;5017873;28;20487;-60
2022/06/30 01:39:41;;;;;;;3.30;1.50;;;14.30;67.70;;;;;;5034943;28;20353;-60
2022/06/30 01:42:09;;;;;;;2.88;1.83;;;14.30;67.30;;;;;;5035049;28;20026;-60
2022/06/30 01:44:36;;;;;;;4.40;1.10;;;14.40;67.20;;;;;;5034995;28;20447;-60
2022/06/30 01:47:03;;;;;;;2.42;1.58;;;14.40;66.60;;;;;;5017518;28;20388;-60
2022/06/30 01:49:30;;;;;;;3.47;1.55;;;14.40;66.80;;;;;;5035080;28;20037;-60
2022/06/30 01:51:58;;;;;;;12.40;2.70;;;14.40;66.90;;;;;;5034838;28;20036;-60
2022/06/30 01:54:25;;;;;;;3.70;1.98;;;14.40;66.90;;;;;;5034611;28;20029;-60
2022/06/30 01:56:52;;;;;;;5.32;1.40;;;14.40;65.90;;;;;;5034806;28;20029;-60
2022/06/30 01:59:19;;;;;;;6.15;1.73;;;14.40;65.70;;;;;;5017179;28;20510;-60
2022/06/30 02:01:46;;;;;;;7.53;1.75;;;14.50;66.30;;;;;;5017464;28;20033;-59
2022/06/30 02:06:59;;;;;;;8.07;2.08;;;14.50;67.20;;;;;;5034127;28;20052;-60
2022/06/30 02:09:26;;;;;;;2.88;1.40;;;14.50;67.20;;;;;;5034159;28;20037;-60
2022/06/30 02:12:44;;;;;;;2.88;1.40;;;14.50;66.60;;;;;;5034229;28;20022;-60
2022/06/30 02:14:40;;;;;;;3.08;1.40;;;14.60;66.40;;;;;;5034022;28;20065;-61
2022/06/30 02:17:07;;;;;;;4.32;1.80;;;14.60;66.50;;;;;;5034182;28;20050;-60
2022/06/30 02:19:34;;;;;;;2.75;1.55;;;14.50;66.00;;;;;;5016730;28;20037;-60
2022/06/30 02:22:02;;;;;;;2.75;1.63;;;14.60;65.80;;;;;;5034228;28;20124;-60
2022/06/30 02:24:29;;;;;;;3.45;1.40;;;14.60;65.60;;;;;;5034338;28;20140;-63
2022/06/30 02:26:56;;;;;;;3.10;1.30;;;14.60;65.40;;;;;;5034364;28;20022;-60
2022/06/30 02:29:24;;;;;;;6.18;1.48;;;14.60;65.70;;;;;;5016528;28;20097;-61
2022/06/30 02:31:51;;;;;;;2.65;1.40;;;14.60;66.10;;;;;;5034285;28;20033;-61
2022/06/30 02:34:18;;;;;;;6.32;1.35;;;14.70;66.00;;;;;;5034305;28;20044;-60
2022/06/30 02:36:45;;;;;;;3.88;1.60;;;14.70;66.50;;;;;;5016575;28;20033;-60
2022/06/30 02:39:12;;;;;;;6.25;1.60;;;14.70;66.70;;;;;;5016533;28;20025;-60
2022/06/30 02:41:40;;;;;;;3.97;1.60;;;14.80;67.00;;;;;;5016208;28;20037;-60
2022/06/30 02:44:07;;;;;;;3.20;1.30;;;14.80;66.70;;;;;;5033596;28;20077;-60
2022/06/30 02:46:34;;;;;;;7.63;1.80;;;14.80;66.80;;;;;;5033454;28;20076;-60
2022/06/30 02:49:01;;;;;;;7.50;1.92;;;14.80;67.40;;;;;;5034021;28;20468;-60
2022/06/30 02:51:28;;;;;;;6.32;1.70;;;14.80;67.30;;;;;;5015986;28;20499;-61
2022/06/30 02:53:55;;;;;;;2.95;1.30;;;14.90;67.20;;;;;;5033633;28;20084;-60
2022/06/30 02:56:23;;;;;;;2.55;1.25;;;14.90;66.80;;;;;;4999663;28;20061;-61
2022/06/30 02:58:50;;;;;;;5.35;1.58;;;15.00;66.40;;;;;;5033412;28;20056;-60
2022/06/30 03:01:17;;;;;;;2.55;1.50;;;15.00;66.60;;;;;;5033223;28;20042;-61
2022/06/30 03:03:44;;;;;;;3.50;1.42;;;15.00;65.30;;;;;;5033324;28;20539;-61
2022/06/30 03:06:11;;;;;;;6.00;1.65;;;15.10;66.00;;;;;;5033094;28;20033;-60
2022/06/30 03:08:38;;;;;;;4.80;1.75;;;15.20;65.10;;;;;;5033320;28;20124;-61
2022/06/30 03:11:06;;;;;;;6.40;1.63;;;15.20;65.30;;;;;;5033335;28;20175;-63
2022/06/30 03:13:33;;;;;;;4.10;1.45;;;15.20;66.10;;;;;;5033258;28;20036;-60
2022/06/30 03:16:01;;;;;;;3.13;1.40;;;15.20;66.20;;;;;;5033073;28;20037;-61
2022/06/30 03:18:29;;;;;;;3.55;1.77;;;15.10;66.10;;;;;;5033001;28;20038;-60
2022/06/30 03:20:56;;;;;;;3.00;1.35;;;15.20;66.50;;;;;;5033099;28;20040;-61
2022/06/30 03:23:25;;;;;;;3.75;1.30;;;15.20;66.10;;;;;;5033139;28;20499;-62
2022/06/30 03:25:52;;;;;;;2.60;1.30;;;15.10;66.50;;;;;;5033368;28;20030;-60
2022/06/30 03:28:19;;;;;;;2.50;1.23;;;15.20;66.50;;;;;;5032837;28;20431;-60
2022/06/30 03:30:47;;;;;;;3.15;1.48;;;15.20;66.00;;;;;;5032991;28;20060;-60
2022/06/30 03:33:15;;;;;;;8.98;1.30;;;15.20;66.60;;;;;;5032720;28;20037;-60
2022/06/30 03:35:42;;;;;;;4.38;1.50;;;15.20;64.70;;;;;;5033108;28;20372;-60
2022/06/30 03:38:10;;;;;;;5.10;1.48;;;15.30;64.70;;;;;;5015003;28;20069;-59
2022/06/30 03:40:37;;;;;;;2.92;1.30;;;15.40;64.50;;;;;;5032854;28;20033;-60
2022/06/30 03:43:04;;;;;;;8.10;1.70;;;15.30;65.70;;;;;;5032561;28;20057;-60
2022/06/30 03:45:31;;;;;;;4.50;1.27;;;15.40;65.10;;;;;;5032832;28;20112;-60
2022/06/30 03:48:01;;;;;;;19.50;4.30;;;15.40;64.80;;;;;;5032800;28;20038;-60
2022/06/30 03:50:28;;;;;;;11.65;2.58;;;15.40;66.00;;;;;;5032871;28;20052;-60
2022/06/30 03:52:56;;;;;;;4.40;1.63;;;15.40;66.20;;;;;;5032554;28;20045;-59
2022/06/30 03:55:23;;;;;;;10.85;1.77;;;15.40;65.50;;;;;;5032736;28;20045;-60
2022/06/30 03:57:51;;;;;;;7.65;1.75;;;15.40;65.70;;;;;;5032390;28;20033;-60
2022/06/30 04:00:18;;;;;;;7.88;1.65;;;15.40;65.50;;;;;;5031937;28;20045;-60
2022/06/30 04:02:45;;;;;;;12.63;1.65;;;15.40;66.30;;;;;;5032086;28;20459;-60
2022/06/30 04:05:12;;;;;;;13.10;1.90;;;15.40;65.50;;;;;;5032158;28;20103;-60
2022/06/30 04:07:43;;;;;;;3.28;1.70;;;15.50;65.50;;;;;;5031619;28;20033;-60
2022/06/30 04:10:12;;;;;;;6.63;2.03;;;15.50;64.70;;;;;;5032110;28;20057;-61
2022/06/30 04:12:39;;;;;;;22.05;2.70;;;15.50;65.30;;;;;;5031843;28;20086;-60
2022/06/30 04:15:07;;;;;;;9.32;1.80;;;15.50;63.70;;;;;;5032306;28;20025;-60
2022/06/30 04:17:34;;;;;;;9.32;1.98;;;15.50;63.10;;;;;;5031607;28;20039;-60
2022/06/30 04:20:03;;;;;;;10.98;2.30;;;15.50;63.20;;;;;;5014673;28;20379;-60
2022/06/30 04:22:30;;;;;;;7.72;2.00;;;15.50;63.60;;;;;;5031735;28;20037;-60
2022/06/30 04:24:57;;;;;;;6.05;1.20;;;15.60;61.80;;;;;;5032408;28;20577;-60
2022/06/30 04:27:24;;;;;;;5.80;1.52;;;15.60;61.80;;;;;;5032222;28;20492;-60
2022/06/30 04:29:52;;;;;;;2.05;1.10;;;15.60;61.10;;;;;;5031650;28;20057;-60
2022/06/30 04:35:05;;;;;;;14.48;2.05;;;15.60;59.80;;;;;;5031831;28;20037;-60
2022/06/30 04:37:32;;;;;;;4.93;1.27;;;15.60;60.70;;;;;;5031872;28;20038;-59
2022/06/30 04:42:44;;;;;;;6.68;1.30;;;15.60;60.70;;;;;;5031853;28;20048;-61
2022/06/30 04:45:12;;;;;;;14.95;3.20;;;15.50;57.30;;;;;;5014163;28;20120;-61
2022/06/30 04:47:39;;;;;;;5.68;1.25;;;15.60;57.80;;;;;;5031363;28;20120;-61
2022/06/30 04:50:07;;;;;;;2.78;1.10;;;15.60;57.90;;;;;;5014052;28;20030;-60
2022/06/30 04:52:34;;;;;;;10.23;2.30;;;15.50;59.10;;;;;;5014067;28;20048;-60
2022/06/30 04:55:02;;;;;;;13.07;1.90;;;15.50;59.20;;;;;;5031389;28;20105;-60
2022/06/30 04:57:29;;;;;;;6.25;1.45;;;15.50;58.60;;;;;;5014086;28;20068;-60
2022/06/30 04:59:56;;;;;;;12.80;2.95;;;15.50;57.90;;;;;;5031415;28;20038;-60
2022/06/30 05:02:23;;;;;;;7.13;1.48;;;15.50;59.20;;;;;;5031422;28;20129;-61
2022/06/30 05:04:50;;;;;;;7.18;1.50;;;15.60;58.00;;;;;;5035065;28;20037;-61
2022/06/30 05:07:17;;;;;;;6.80;1.50;;;15.50;58.80;;;;;;5017441;28;20388;-62
2022/06/30 05:09:45;;;;;;;2.78;1.40;;;15.50;59.10;;;;;;5035914;28;20029;-61
2022/06/30 05:12:12;;;;;;;9.25;1.50;;;15.50;58.30;;;;;;5035707;28;20080;-61
2022/06/30 05:14:39;;;;;;;20.33;2.50;;;15.50;58.50;;;;;;5035552;28;20538;-61
2022/06/30 05:17:07;;;;;;;5.07;1.70;;;15.50;59.90;;;;;;5035106;28;20037;-61
2022/06/30 05:19:34;;;;;;;12.27;1.70;;;15.50;60.40;;;;;;5035490;28;20029;-60
2022/06/30 05:22:02;;;;;;;14.75;1.90;;;15.50;59.20;;;;;;5035641;28;20107;-61
2022/06/30 05:27:22;;;;;;;15.88;1.63;;;15.50;59.70;;;;;;5007009;28;20063;-61
2022/06/30 05:29:49;;;;;;;5.97;1.67;;;15.50;59.20;;;;;;5033977;28;20541;-61
2022/06/30 05:32:16;;;;;;;15.75;2.15;;;15.50;58.80;;;;;;5035305;28;20052;-61
2022/06/30 05:34:43;;;;;;;1.42;1.10;;;15.50;59.50;;;;;;5034935;28;20033;-61
2022/06/30 05:37:11;;;;;;;4.75;1.35;;;15.50;58.80;;;;;;5034994;28;20136;-61
2022/06/30 05:39:38;;;;;;;6.30;1.23;;;15.40;58.70;;;;;;5034791;28;20047;-61
2022/06/30 05:42:06;;;;;;;3.92;1.30;;;15.40;59.40;;;;;;5035112;28;20018;-61
2022/06/30 05:44:33;;;;;;;6.30;1.27;;;15.40;59.20;;;;;;5017518;28;20055;-61
2022/06/30 05:47:00;;;;;;;9.45;1.92;;;15.40;57.80;;;;;;5021603;28;20025;-61
2022/06/30 05:49:27;;;;;;;7.22;1.42;;;15.50;58.80;;;;;;5034793;28;20033;-61
2022/06/30 05:51:55;;;;;;;5.50;1.38;;;15.40;58.00;;;;;;5034819;28;20282;-61
2022/06/30 05:54:22;;;;;;;13.68;1.50;;;15.40;56.60;;;;;;5034917;28;20112;-61
2022/06/30 05:56:49;;;;;;;3.97;0.82;;;15.40;56.80;;;;;;5034654;28;20042;-60
2022/06/30 05:59:16;;;;;;;8.05;1.20;;;15.40;54.60;;;;;;5035182;28;20069;-61
2022/06/30 06:01:43;;;;;;;2.63;1.23;;;15.40;54.30;;;;;;5035067;28;20037;-61
2022/06/30 06:04:11;;;;;;;3.47;1.25;;;15.30;53.70;;;;;;5034636;28;20046;-61
2022/06/30 06:06:38;;;;;;;5.53;1.70;;;15.40;52.50;;;;;;5034405;28;20045;-61
2022/06/30 06:09:05;;;;;;;4.75;1.60;;;15.40;52.40;;;;;;5034572;28;20042;-61
2022/06/30 06:11:32;;;;;;;5.00;2.03;;;15.40;53.00;;;;;;5034782;28;20034;-61
2022/06/30 06:14:00;;;;;;;9.98;1.80;;;15.50;53.10;;;;;;5033786;28;20112;-61
2022/06/30 06:16:27;;;;;;;11.23;2.05;;;15.40;53.20;;;;;;5037280;28;20042;-61
2022/06/30 06:18:54;;;;;;;16.67;2.70;;;15.40;53.40;;;;;;5042186;28;20365;-61
2022/06/30 06:21:21;;;;;;;11.15;2.05;;;15.40;54.30;;;;;;5036460;28;20034;-61
2022/06/30 06:23:49;;;;;;;7.45;2.03;;;15.30;55.70;;;;;;5034188;28;20208;-60
2022/06/30 06:26:16;;;;;;;14.45;2.10;;;15.30;54.90;;;;;;5016280;28;20025;-61
2022/06/30 06:31:28;;;;;;;3.63;1.23;;;15.30;53.90;;;;;;5047792;28;20096;-61
2022/06/30 06:33:55;;;;;;;6.18;1.50;;;15.30;54.10;;;;;;5034278;28;20033;-61
2022/06/30 06:36:23;;;;;;;9.57;1.50;;;15.20;55.20;;;;;;5016254;28;20052;-61
2022/06/30 06:38:51;;;;;;;8.25;1.50;;;15.20;54.00;;;;;;5033839;28;20482;-61
2022/06/30 06:41:20;;;;;;;8.85;1.77;;;15.20;54.00;;;;;;5035666;28;20395;-61
2022/06/30 06:43:49;;;;;;;2.88;1.23;;;15.20;53.30;;;;;;5033662;28;20053;-60
2022/06/30 06:46:17;;;;;;;6.95;1.50;;;15.20;52.90;;;;;;5016058;28;20033;-61
2022/06/30 06:48:44;;;;;;;4.15;1.30;;;15.20;53.80;;;;;;5045940;28;20073;-61
2022/06/30 06:51:11;;;;;;;4.13;1.30;;;15.20;54.60;;;;;;5016798;28;20038;-61
2022/06/30 06:53:38;;;;;;;5.57;1.95;;;15.20;54.30;;;;;;5033284;28;20029;-61
2022/06/30 06:56:06;;;;;;;8.80;2.00;;;15.20;54.80;;;;;;5033630;28;20049;-63
2022/06/30 06:58:33;;;;;;;9.30;1.90;;;15.20;55.50;;;;;;5008852;28;20124;-61
2022/06/30 07:01:00;;;;;;;7.90;1.80;;;15.10;56.60;;;;;;5038826;28;20032;-62
2022/06/30 07:03:29;;;;;;;3.40;1.52;;;15.10;56.50;;;;;;5034148;28;20111;-62
2022/06/30 07:05:57;;;;;;;10.60;2.17;;;15.00;55.80;;;;;;5030217;28;20030;-62
2022/06/30 07:08:24;;;;;;;9.80;1.85;;;15.00;56.50;;;;;;4991128;28;20050;-62
2022/06/30 07:10:52;;;;;;;5.72;1.90;;;15.00;57.30;;;;;;4990827;28;20042;-63
2022/06/30 07:13:19;;;;;;;6.30;1.65;;;14.90;57.80;;;;;;4990967;28;20043;-62
2022/06/30 07:15:46;;;;;;;2.97;1.35;;;14.80;57.30;;;;;;4990348;28;20418;-63
2022/06/30 07:18:13;;;;;;;3.95;1.88;;;14.80;58.00;;;;;;4991126;28;20114;-62
2022/06/30 07:20:40;;;;;;;6.03;1.63;;;14.80;57.80;;;;;;4990573;28;20041;-63
2022/06/30 07:23:07;;;;;;;4.72;1.98;;;14.80;56.90;;;;;;4988380;28;20038;-61
2022/06/30 07:25:35;;;;;;;4.57;1.67;;;14.80;56.60;;;;;;4990527;28;20038;-62
2022/06/30 07:28:03;;;;;;;7.38;1.73;;;14.80;57.10;;;;;;4990757;28;20038;-62
2022/06/30 07:30:31;;;;;;;9.88;1.85;;;14.80;57.30;;;;;;4990963;28;20149;-62
2022/06/30 07:32:58;;;;;;;4.43;1.60;;;14.80;58.70;;;;;;4990903;28;20038;-61
2022/06/30 07:35:25;;;;;;;4.63;1.40;;;14.80;58.10;;;;;;4990862;28;20100;-62
2022/06/30 07:37:52;;;;;;;2.78;1.45;;;14.80;57.00;;;;;;4990746;28;20444;-61
2022/06/30 07:40:20;;;;;;;5.22;1.50;;;14.80;57.50;;;;;;4990509;28;20097;-62
2022/06/30 07:42:48;;;;;;;5.22;1.70;;;14.70;57.10;;;;;;4990684;28;20433;-61
2022/06/30 07:45:15;;;;;;;2.25;1.45;;;14.70;57.60;;;;;;4990477;28;20046;-62
2022/06/30 07:47:44;;;;;;;2.60;1.30;;;14.70;57.50;;;;;;4990434;28;20089;-62
2022/06/30 07:50:11;;;;;;;5.72;1.58;;;14.70;57.10;;;;;;4989854;28;20039;-62
2022/06/30 07:52:39;;;;;;;3.75;1.40;;;14.70;57.10;;;;;;4990557;28;20574;-62
2022/06/30 07:55:06;;;;;;;3.58;1.40;;;14.70;57.20;;;;;;4990463;28;20392;-62
2022/06/30 07:57:37;;;;;;;4.53;1.50;;;14.70;57.50;;;;;;4990289;28;20046;-62
2022/06/30 08:00:08;;;;;;;4.80;1.80;;;14.70;57.50;;;;;;4985928;28;20077;-62
2022/06/30 08:02:35;;;;;;;5.85;1.60;;;14.70;57.60;;;;;;4981146;28;20035;-62
2022/06/30 08:05:03;;;;;;;5.15;2.03;;;14.70;57.60;;;;;;4985253;28;20157;-62
2022/06/30 08:07:30;;;;;;;3.70;1.75;;;14.70;57.40;;;;;;5002195;28;20067;-62
2022/06/30 08:09:57;;;;;;;3.47;1.80;;;14.70;57.20;;;;;;5033813;28;20060;-62
2022/06/30 08:12:24;;;;;;;3.70;1.92;;;14.70;57.80;;;;;;5032045;28;20431;-62
2022/06/30 08:14:51;;;;;;;3.65;1.58;;;14.70;58.90;;;;;;5028917;28;20897;-62
2022/06/30 08:17:19;;;;;;;4.97;1.70;;;14.70;58.70;;;;;;5028795;28;20026;-62
2022/06/30 08:19:46;;;;;;;5.30;1.65;;;14.60;57.80;;;;;;5031456;28;20040;-64
2022/06/30 08:22:13;;;;;;;4.57;1.83;;;14.60;57.20;;;;;;5032021;28;20111;-62
2022/06/30 08:24:40;;;;;;;3.35;1.70;;;14.60;57.80;;;;;;5029204;28;20476;-62
2022/06/30 08:27:07;;;;;;;3.22;1.70;;;14.60;57.50;;;;;;5011815;28;20036;-61
2022/06/30 08:29:35;;;;;;;3.47;1.63;;;14.50;58.30;;;;;;5030681;28;20041;-62
2022/06/30 08:32:02;;;;;;;3.13;1.70;;;14.60;57.40;;;;;;5037691;28;20396;-62
2022/06/30 08:34:30;;;;;;;3.35;1.70;;;14.60;58.20;;;;;;5010988;28;20530;-62
2022/06/30 08:36:57;;;;;;;3.67;1.90;;;14.50;58.50;;;;;;5009796;28;20045;-61
2022/06/30 08:42:09;;;;;;;5.80;2.10;;;14.50;59.10;;;;;;5028037;28;20095;-63
2022/06/30 08:44:37;;;;;;;3.42;2.00;;;14.50;58.50;;;;;;5028033;28;20131;-61
2022/06/30 08:47:05;;;;;;;3.17;1.73;;;14.50;59.20;;;;;;5026195;28;20036;-62
2022/06/30 08:49:32;;;;;;;3.40;2.10;;;14.50;59.60;;;;;;5004184;28;20538;-63
2022/06/30 08:52:00;;;;;;;3.95;1.98;;;14.50;59.50;;;;;;5009478;28;20165;-61
2022/06/30 08:54:28;;;;;;;7.50;1.98;;;14.40;59.70;;;;;;5008450;28;20168;-64
2022/06/30 08:56:56;;;;;;;5.32;1.95;;;14.40;59.80;;;;;;5028802;28;20044;-62
2022/06/30 08:59:24;;;;;;;4.13;1.95;;;14.40;59.70;;;;;;5025502;28;20459;-61
2022/06/30 09:01:54;;;;;;;3.33;2.00;;;14.40;60.50;;;;;;5009806;28;20396;-60
2022/06/30 09:04:24;;;;;;;4.20;1.98;;;14.40;59.80;;;;;;5028512;28;20120;-60
2022/06/30 09:06:52;;;;;;;3.53;1.95;;;14.30;60.30;;;;;;5008221;28;20041;-61
2022/06/30 09:09:19;;;;;;;3.50;2.25;;;14.40;60.20;;;;;;5027967;28;20119;-62
2022/06/30 09:11:54;;;;;;;5.22;2.13;;;14.30;60.20;;;;;;5032419;28;20038;-62
2022/06/30 09:14:42;;;;;;;6.30;2.28;;;14.30;60.40;;;;;;5010948;28;20022;-63
2022/06/30 09:17:28;;;;;;;7.00;2.63;;;14.30;60.60;;;;;;5026508;28;20388;-62
2022/06/30 09:20:00;;;;;;;7.45;2.80;;;14.30;60.50;;;;;;5034207;28;20036;-61
2022/06/30 09:22:34;;;;;;;4.45;2.53;;;14.30;60.50;;;;;;5031292;28;20372;-63
2022/06/30 09:25:08;;;;;;;5.90;3.33;;;14.30;60.50;;;;;;5028137;28;20115;-64
2022/06/30 09:27:37;;;;;;;8.27;3.22;;;14.20;60.80;;;;;;4995982;28;20042;-64
2022/06/30 09:30:08;;;;;;;9.48;3.10;;;14.20;61.20;;;;;;5032098;28;20116;-61
2022/06/30 09:33:06;;;;;;;7.22;3.35;;;14.20;61.60;;;;;;5034105;28;20042;-61
2022/06/30 09:35:33;;;;;;;11.60;3.38;;;14.20;62.20;;;;;;5018467;28;20152;-61
2022/06/30 09:38:05;;;;;;;9.00;3.20;;;14.20;62.00;;;;;;5010615;28;20399;-60
2022/06/30 10:30:29;;;;;;;;;;;14.10;65.30;;;;;;5016183;28;20400;-63
2022/06/30 10:33:01;;;;;;;8.05;2.90;;;14.10;65.60;;;;;;5013704;28;19917;-63
2022/06/30 10:35:55;;;;;;;6.68;3.15;;;14.10;65.50;;;;;;5011844;28;20029;-62
2022/06/30 10:38:34;;;;;;;4.97;2.80;;;14.10;65.60;;;;;;5015668;28;20043;-62
2022/06/30 10:41:11;;;;;;;5.15;2.80;;;14.10;65.30;;;;;;5031475;28;20069;-63
2022/06/30 10:44:06;;;;;;;6.93;3.00;;;14.10;65.60;;;;;;5046129;28;20045;-61
2022/06/30 10:46:34;;;;;;;5.43;3.00;;;14.00;65.60;;;;;;5030507;28;20100;-61
2022/06/30 10:49:08;;;;;;;6.68;3.28;;;14.10;65.50;;;;;;5025932;28;20034;-62
2022/06/30 10:51:35;;;;;;;5.05;3.20;;;14.00;65.50;;;;;;5042214;28;20041;-62
2022/06/30 10:54:02;;;;;;;5.13;2.92;;;14.00;65.60;;;;;;5030998;28;20029;-64
2022/06/30 10:56:53;;;;;;;8.73;3.10;;;14.00;65.90;;;;;;5008372;28;20042;-63
2022/06/30 10:59:41;;;;;;;5.85;3.00;;;14.00;65.60;;;;;;5023183;28;20137;-63
2022/06/30 11:02:09;;;;;;;7.85;2.90;;;14.00;66.40;;;;;;5013801;28;20530;-62
2022/06/30 11:04:37;;;;;;;11.65;4.00;;;14.00;66.90;;;;;;5028599;28;20053;-63
2022/06/30 11:07:30;;;;;;;5.60;3.30;;;14.00;66.90;;;;;;5028542;28;20041;-62
2022/06/30 11:09:57;;;;;;;10.38;3.42;;;14.00;67.00;;;;;;5037665;28;20117;-61
2022/06/30 11:12:37;;;;;;;8.65;3.00;;;14.00;66.90;;;;;;5028898;28;20088;-61
2022/06/30 11:15:04;;;;;;;6.07;2.88;;;14.00;67.20;;;;;;5030434;28;20040;-61
2022/06/30 11:17:32;;;;;;;7.78;2.90;;;14.00;67.40;;;;;;5026450;28;20041;-61
2022/06/30 11:20:02;;;;;;;9.02;3.03;;;14.00;67.50;;;;;;5024837;28;20041;-63
2022/06/30 11:22:30;;;;;;;5.97;2.85;;;14.00;67.60;;;;;;5010014;28;20504;-63
2022/06/30 11:24:59;;;;;;;4.68;2.75;;;13.90;67.70;;;;;;5030421;28;20748;-61
2022/06/30 11:27:28;;;;;;;4.82;2.90;;;13.90;67.70;;;;;;5012683;28;20034;-60
2022/06/30 11:30:03;;;;;;;5.13;2.55;;;13.90;67.90;;;;;;5028220;28;20029;-60
2022/06/30 11:32:31;;;;;;;5.45;2.92;;;13.80;68.10;;;;;;4990091;28;20045;-60
2022/06/30 11:34:58;;;;;;;5.75;2.90;;;13.90;68.00;;;;;;4987600;28;20528;-61
2022/06/30 11:37:30;;;;;;;6.18;2.83;;;13.80;68.00;;;;;;4988444;28;20038;-61
2022/06/30 11:39:58;;;;;;;9.50;2.70;;;13.80;67.80;;;;;;4977315;28;20485;-60
2022/06/30 11:42:25;;;;;;;6.63;3.00;;;13.80;67.70;;;;;;4971533;28;20513;-61
2022/06/30 11:44:53;;;;;;;5.75;3.13;;;13.80;67.70;;;;;;4980887;28;20069;-61
2022/06/30 11:47:22;;;;;;;3.83;2.20;;;13.80;67.80;;;;;;4990861;28;20035;-60
2022/06/30 11:49:57;;;;;;;6.78;2.95;;;13.80;67.70;;;;;;4989424;28;20046;-61
2022/06/30 11:52:31;;;;;;;3.30;2.38;;;13.80;67.90;;;;;;4993622;28;20089;-61
2022/06/30 11:55:03;;;;;;;4.25;2.30;;;13.80;67.80;;;;;;4990931;28;20646;-62
2022/06/30 11:57:31;;;;;;;6.00;2.83;;;13.80;67.80;;;;;;4985895;28;20489;-62
2022/06/30 12:00:02;;;;;;;5.00;2.60;;;13.80;68.00;;;;;;4988945;28;20125;-61
2022/06/30 12:02:30;;;;;;;8.00;2.78;;;13.70;68.10;;;;;;4989544;28;20062;-61
2022/06/30 12:05:01;;;;;;;5.55;2.45;;;13.70;67.90;;;;;;4992631;28;20042;-61
2022/06/30 12:07:29;;;;;;;5.20;2.60;;;13.70;68.20;;;;;;4988749;28;20390;-60
2022/06/30 12:09:56;;;;;;;4.88;2.70;;;13.70;68.30;;;;;;4975466;28;20143;-60
2022/06/30 12:12:35;;;;;;;6.63;2.70;;;13.70;68.40;;;;;;4985179;28;20034;-61
2022/06/30 12:15:22;;;;;;;4.30;2.35;;;13.70;68.60;;;;;;4994232;28;20729;-60
2022/06/30 12:17:54;;;;;;;9.38;3.03;;;13.70;68.70;;;;;;4979734;28;20524;-60
2022/06/30 12:20:23;;;;;;;7.82;2.88;;;13.70;68.90;;;;;;4988726;28;20409;-61
2022/06/30 12:22:51;;;;;;;6.85;2.53;;;13.60;69.20;;;;;;4984517;28;20033;-61
2022/06/30 12:25:19;;;;;;;5.53;2.70;;;13.60;69.30;;;;;;4988056;28;20046;-61
2022/06/30 12:27:46;;;;;;;6.40;2.63;;;13.60;69.40;;;;;;4986917;28;20036;-61
2022/06/30 12:30:14;;;;;;;5.85;2.50;;;13.60;69.70;;;;;;4991982;28;20050;-61
2022/06/30 12:32:42;;;;;;;4.25;2.42;;;13.50;69.80;;;;;;5027272;28;20062;-62
2022/06/30 12:35:11;;;;;;;6.75;2.70;;;13.50;70.00;;;;;;5011610;28;20077;-60
2022/06/30 12:37:40;;;;;;;4.10;2.35;;;13.50;70.50;;;;;;5027714;28;20464;-63
2022/06/30 12:40:12;;;;;;;4.60;2.70;;;13.50;70.80;;;;;;5025720;28;20099;-59
2022/06/30 12:42:59;;;;;;;6.93;2.60;;;13.50;70.60;;;;;;5027355;28;20607;-62
2022/06/30 12:45:50;;;;;;;9.68;3.00;;;13.40;71.30;;;;;;5032850;28;20091;-59
2022/06/30 12:48:53;;;;;;;6.47;2.80;;;13.40;71.20;;;;;;5025825;28;20400;-60
2022/06/30 12:51:32;;;;;;;7.15;2.72;;;13.30;71.70;;;;;;5019970;28;20095;-60
2022/06/30 12:54:07;;;;;;;7.90;2.75;;;13.30;72.00;;;;;;5029266;28;20152;-61
2022/06/30 12:56:34;;;;;;;8.80;2.67;;;13.30;71.50;;;;;;5026723;28;20120;-60
2022/06/30 12:59:07;;;;;;;6.28;2.45;;;13.30;71.30;;;;;;5007089;28;20463;-61
2022/06/30 13:01:42;;;;;;;6.60;2.78;;;13.30;71.20;;;;;;5014497;28;20470;-60
2022/06/30 13:04:10;;;;;;;6.30;2.60;;;13.30;71.00;;;;;;5024074;28;20574;-61
2022/06/30 13:06:42;;;;;;;3.70;2.15;;;13.30;70.80;;;;;;5033363;28;20037;-60
2022/06/30 13:09:16;;;;;;;3.65;2.33;;;13.30;70.90;;;;;;5012776;28;20116;-60
2022/06/30 13:11:48;;;;;;;4.50;2.30;;;13.30;71.10;;;;;;5028923;28;20038;-60
2022/06/30 13:14:16;;;;;;;5.18;2.40;;;13.30;71.70;;;;;;5031057;28;20037;-61
2022/06/30 13:16:43;;;;;;;5.45;2.42;;;13.20;71.50;;;;;;5030019;28;20034;-61
2022/06/30 13:19:10;;;;;;;5.65;2.58;;;13.20;71.90;;;;;;5012165;28;20046;-60
2022/06/30 13:21:37;;;;;;;4.90;2.10;;;13.20;72.00;;;;;;5027176;28;20107;-61
2022/06/30 13:24:06;;;;;;;5.47;2.83;;;13.20;72.00;;;;;;5035358;28;20056;-61
2022/06/30 13:26:34;;;;;;;6.75;2.40;;;13.20;71.90;;;;;;5033443;28;20041;-61
2022/06/30 13:29:02;;;;;;;3.55;2.40;;;13.20;71.90;;;;;;5033541;28;20033;-61
2022/06/30 13:31:32;;;;;;;5.53;2.22;;;13.20;71.90;;;;;;5033446;28;20665;-61
2022/06/30 13:34:00;;;;;;;4.55;2.13;;;13.20;71.90;;;;;;5037320;28;20037;-61
2022/06/30 13:36:30;;;;;;;10.95;2.50;;;13.20;71.50;;;;;;5045722;28;20029;-61
2022/06/30 13:38:57;;;;;;;12.57;2.72;;;13.20;72.00;;;;;;5032472;28;20092;-61
2022/06/30 13:41:25;;;;;;;7.78;2.35;;;13.20;71.80;;;;;;5033110;28;20045;-61
2022/06/30 13:43:52;;;;;;;3.70;2.10;;;13.20;71.30;;;;;;5036024;28;20124;-61
2022/06/30 13:46:20;;;;;;;4.00;2.28;;;13.20;70.90;;;;;;5033892;28;20067;-61
2022/06/30 13:48:47;;;;;;;8.65;2.80;;;13.20;70.90;;;;;;5033193;28;20026;-60
2022/06/30 13:51:14;;;;;;;7.88;2.50;;;13.20;70.60;;;;;;5034036;28;20029;-61
2022/06/30 13:53:41;;;;;;;7.38;3.03;;;13.20;71.00;;;;;;5037831;28;20037;-61
2022/06/30 13:56:08;;;;;;;9.52;2.95;;;13.20;70.60;;;;;;5033503;28;20030;-61
2022/06/30 13:58:36;;;;;;;4.15;2.50;;;13.20;70.30;;;;;;5034579;28;20506;-61
2022/06/30 14:01:03;;;;;;;4.20;2.53;;;13.20;70.80;;;;;;5032541;28;20399;-61
2022/06/30 14:03:31;;;;;;;12.20;2.60;;;13.20;71.00;;;;;;5033869;28;20459;-61
2022/06/30 14:06:00;;;;;;;6.53;2.17;;;13.20;70.60;;;;;;5032148;28;20033;-61